Hays, Montana
Current Conditions -  °F | °C
As of 7:53 PM on Wednesday 26 Nov 2014 (Local Time) from KHVR Reporting Station
Overcast Overcast  
Wind Chill: 21°   Ceiling: 5500
Heat Index: 29°   Visibility: 8mi
Dew Point: 27°   Wind: 8mph
Humidity: 92%   Direction: 60°ENE
Pressure: 30.13"   Gusts: NA
Location:  47.99°N, 108.7°W
Report Text: KHVR 270253Z AUTO 06007KT 8SM BKN055 OVC070 M02/M03 A3013 RMK AO2 SNE14B39E51 SLP233 P0000 60000 T10171028 58013
Loading
Personal Weather Stations






























Interactive Weather Map New forecast layout! Learn more

10-Day Weather Forecast

Advertisements
Track Severe Weather on mobile